Time,TemperatureF,DewpointF,PressureIn,WindDirection,WindDirectionDegrees,WindSpeedMPH,WindSpeedGustMPH,Humidity,HourlyPrecipIn,Conditions,Clouds,dailyrainin,SoftwareType,DateUTC
2013-03-06 00:02:00,65.0,53.0,29.85,SW,230,3.0,9.0,65,0.00,,,0.00,,2013-03-06 05:02:00,
2013-03-06 00:12:00,66.0,54.0,29.85,SW,230,6.0,9.0,66,0.00,,,0.00,,2013-03-06 05:12:00,
2013-03-06 00:22:00,66.0,54.0,29.85,SW,230,6.0,9.0,66,0.00,,,0.00,,2013-03-06 05:22:00,
2013-03-06 00:32:00,66.0,54.0,29.85,SW,215,5.0,5.0,66,0.00,,,0.00,,2013-03-06 05:32:00,
2013-03-06 00:42:00,66.0,54.0,29.85,SW,215,5.0,5.0,66,0.00,,,0.00,,2013-03-06 05:42:00,
2013-03-06 00:52:00,66.0,55.0,29.85,WSW,240,5.0,7.0,67,0.00,,,0.00,,2013-03-06 05:52:00,
2013-03-06 01:02:00,66.0,55.0,29.83,West,260,2.0,8.0,67,0.00,,,0.00,,2013-03-06 06:02:00,
2013-03-06 01:11:00,66.0,55.0,29.83,West,260,2.0,8.0,67,0.00,,,0.00,,2013-03-06 06:11:00,
2013-03-06 01:22:00,66.0,55.0,29.83,SW,220,5.0,9.0,67,0.00,,,0.00,,2013-03-06 06:22:00,
2013-03-06 01:32:00,66.0,55.0,29.83,WSW,240,7.0,7.0,67,0.00,,,0.00,,2013-03-06 06:32:00,
2013-03-06 01:42:00,66.0,55.0,29.83,WSW,240,7.0,7.0,67,0.00,,,0.00,,2013-03-06 06:42:00,
2013-03-06 01:52:00,65.0,56.0,29.83,West,265,5.0,12.0,73,0.03,,,0.03,,2013-03-06 06:52:00,
2013-03-06 02:01:00,63.0,55.0,29.85,West,280,15.0,18.0,75,0.07,,,0.07,,2013-03-06 07:01:00,
2013-03-06 02:11:00,63.0,55.0,29.85,West,280,15.0,18.0,75,0.07,,,0.07,,2013-03-06 07:11:00,
2013-03-06 02:22:00,62.0,55.0,29.85,West,270,13.0,13.0,77,0.07,,,0.07,,2013-03-06 07:22:00,
2013-03-06 02:32:00,61.0,54.0,29.85,West,270,8.0,12.0,78,0.04,,,0.07,,2013-03-06 07:32:00,
2013-03-06 02:42:00,61.0,54.0,29.85,West,270,8.0,12.0,78,0.04,,,0.07,,2013-03-06 07:42:00,
2013-03-06 02:52:00,61.0,54.0,29.85,West,270,9.0,16.0,79,0.04,,,0.07,,2013-03-06 07:52:00,
2013-03-06 03:01:00,59.0,51.0,29.85,WNW,290,10.0,14.0,76,0.00,,,0.07,,2013-03-06 08:01:00,
2013-03-06 03:11:00,59.0,51.0,29.85,WNW,290,10.0,14.0,76,0.00,,,0.07,,2013-03-06 08:11:00,
2013-03-06 03:21:00,58.0,49.0,29.85,WNW,285,12.0,14.0,73,0.00,,,0.07,,2013-03-06 08:21:00,
2013-03-06 03:32:00,56.0,46.0,29.88,West,280,13.0,18.0,69,0.00,,,0.07,,2013-03-06 08:32:00,
2013-03-06 03:42:00,56.0,46.0,29.88,West,280,13.0,18.0,69,0.00,,,0.07,,2013-03-06 08:42:00,
2013-03-06 03:52:00,55.0,44.0,29.88,West,275,15.0,22.0,67,0.00,,,0.07,,2013-03-06 08:52:00,
2013-03-06 04:02:00,53.0,40.0,29.88,West,265,13.0,17.0,61,0.00,,,0.07,,2013-03-06 09:02:00,
2013-03-06 04:12:00,53.0,40.0,29.88,West,265,13.0,17.0,61,0.00,,,0.07,,2013-03-06 09:12:00,
2013-03-06 04:21:00,53.0,39.0,29.91,West,270,14.0,24.0,59,0.00,,,0.07,,2013-03-06 09:21:00,
2013-03-06 04:32:00,53.0,39.0,29.91,West,270,14.0,24.0,59,0.00,,,0.07,,2013-03-06 09:32:00,
2013-03-06 04:42:00,53.0,39.0,29.91,West,270,14.0,24.0,59,0.00,,,0.07,,2013-03-06 09:42:00,
2013-03-06 04:52:00,50.0,36.0,29.94,West,265,13.0,16.0,59,0.00,,,0.07,,2013-03-06 09:52:00,
2013-03-06 05:02:00,49.0,37.0,29.94,West,265,9.0,14.0,62,0.00,,,0.07,,2013-03-06 10:02:00,
2013-03-06 05:11:00,49.0,37.0,29.94,West,265,9.0,14.0,62,0.00,,,0.07,,2013-03-06 10:11:00,
2013-03-06 05:22:00,48.0,35.0,29.94,West,270,9.0,12.0,61,0.00,,,0.07,,2013-03-06 10:22:00,
2013-03-06 05:32:00,47.0,35.0,29.94,West,260,10.0,12.0,63,0.00,,,0.07,,2013-03-06 10:32:00,
2013-03-06 05:42:00,47.0,35.0,29.94,West,260,10.0,12.0,63,0.00,,,0.07,,2013-03-06 10:42:00,
2013-03-06 05:52:00,47.0,34.0,29.94,West,265,8.0,8.0,61,0.00,,,0.07,,2013-03-06 10:52:00,
2013-03-06 06:02:00,47.0,34.0,29.97,West,275,8.0,15.0,60,0.00,,,0.07,,2013-03-06 11:02:00,
2013-03-06 06:11:00,47.0,34.0,29.97,West,275,8.0,15.0,60,0.00,,,0.07,,2013-03-06 11:11:00,
2013-03-06 06:22:00,47.0,34.0,29.97,West,275,8.0,15.0,60,0.00,,,0.07,,2013-03-06 11:22:00,
2013-03-06 06:32:00,46.0,32.0,29.97,West,275,10.0,10.0,58,0.00,,,0.07,,2013-03-06 11:32:00,
2013-03-06 06:42:00,46.0,32.0,29.97,West,275,10.0,10.0,58,0.00,,,0.07,,2013-03-06 11:42:00,
2013-03-06 06:52:00,46.0,32.0,29.97,West,270,8.0,14.0,58,0.00,,,0.07,,2013-03-06 11:52:00,
2013-03-06 07:02:00,45.0,32.0,29.97,West,275,9.0,12.0,59,0.00,,,0.07,,2013-03-06 12:02:00,
2013-03-06 07:12:00,45.0,32.0,29.97,West,275,9.0,12.0,59,0.00,,,0.07,,2013-03-06 12:12:00,
2013-03-06 07:22:00,45.0,32.0,29.97,West,270,7.0,8.0,59,0.00,,,0.07,,2013-03-06 12:22:00,
2013-03-06 07:33:00,45.0,32.0,29.97,West,265,6.0,10.0,59,0.00,,,0.07,,2013-03-06 12:33:00,
2013-03-06 07:42:00,45.0,32.0,29.97,West,265,6.0,10.0,59,0.00,,,0.07,,2013-03-06 12:42:00,
2013-03-06 07:52:00,45.0,31.0,30.00,West,270,5.0,10.0,58,0.00,,,0.07,,2013-03-06 12:52:00,
2013-03-06 08:02:00,45.0,30.0,30.00,West,275,10.0,10.0,56,0.00,,,0.07,,2013-03-06 13:02:00,
2013-03-06 08:12:00,45.0,30.0,30.00,West,275,10.0,10.0,56,0.00,,,0.07,,2013-03-06 13:12:00,
2013-03-06 08:22:00,45.0,29.0,30.00,West,275,8.0,13.0,54,0.00,,,0.07,,2013-03-06 13:22:00,
2013-03-06 08:32:00,46.0,31.0,30.00,West,275,9.0,9.0,55,0.00,,,0.07,,2013-03-06 13:32:00,
2013-03-06 08:42:00,46.0,31.0,30.00,West,275,9.0,9.0,55,0.00,,,0.07,,2013-03-06 13:42:00,
2013-03-06 08:52:00,46.0,31.0,30.00,West,275,9.0,15.0,56,0.00,,,0.07,,2013-03-06 13:52:00,
2013-03-06 09:02:00,47.0,30.0,30.00,West,265,15.0,17.0,51,0.00,,,0.07,,2013-03-06 14:02:00,
2013-03-06 09:11:00,47.0,30.0,30.00,West,265,15.0,17.0,51,0.00,,,0.07,,2013-03-06 14:11:00,
2013-03-06 09:22:00,47.0,31.0,30.00,West,265,15.0,15.0,53,0.00,,,0.07,,2013-03-06 14:22:00,
2013-03-06 09:32:00,48.0,30.0,30.00,West,275,14.0,16.0,49,0.00,,,0.07,,2013-03-06 14:32:00,
2013-03-06 09:42:00,48.0,30.0,30.00,West,275,14.0,16.0,49,0.00,,,0.07,,2013-03-06 14:42:00,
2013-03-06 09:52:00,47.0,29.0,30.00,West,280,15.0,18.0,49,0.00,,,0.07,,2013-03-06 14:52:00,
2013-03-06 10:02:00,48.0,29.0,30.00,WNW,290,17.0,17.0,47,0.00,,,0.07,,2013-03-06 15:02:00,
2013-03-06 10:12:00,48.0,29.0,30.00,WNW,290,17.0,17.0,47,0.00,,,0.07,,2013-03-06 15:12:00,
2013-03-06 10:22:00,48.0,30.0,30.00,West,280,15.0,17.0,50,0.00,,,0.07,,2013-03-06 15:22:00,
2013-03-06 10:32:00,49.0,29.0,30.00,West,275,15.0,22.0,45,0.00,,,0.07,,2013-03-06 15:32:00,
2013-03-06 10:42:00,49.0,29.0,30.00,West,275,15.0,22.0,45,0.00,,,0.07,,2013-03-06 15:42:00,
2013-03-06 10:52:00,49.0,29.0,30.00,West,280,15.0,15.0,45,0.00,,,0.07,,2013-03-06 15:52:00,
2013-03-06 11:02:00,50.0,28.0,30.00,West,270,14.0,15.0,43,0.00,,,0.07,,2013-03-06 16:02:00,
2013-03-06 11:12:00,50.0,28.0,30.00,West,270,14.0,15.0,43,0.00,,,0.07,,2013-03-06 16:12:00,
2013-03-06 11:21:00,50.0,28.0,30.00,West,270,13.0,15.0,42,0.00,,,0.07,,2013-03-06 16:21:00,
2013-03-06 11:32:00,50.0,27.0,30.00,West,275,14.0,16.0,40,0.00,,,0.07,,2013-03-06 16:32:00,
2013-03-06 11:42:00,50.0,27.0,30.00,West,275,14.0,16.0,40,0.00,,,0.07,,2013-03-06 16:42:00,
2013-03-06 11:52:00,51.0,29.0,30.00,West,280,15.0,17.0,43,0.00,,,0.07,,2013-03-06 16:52:00,
2013-03-06 12:01:00,51.0,28.0,30.00,West,280,15.0,17.0,41,0.00,,,0.07,,2013-03-06 17:01:00,
2013-03-06 12:11:00,51.0,28.0,30.00,West,280,15.0,17.0,41,0.00,,,0.07,,2013-03-06 17:11:00,
2013-03-06 12:22:00,52.0,27.0,30.00,West,265,14.0,14.0,37,0.00,,,0.07,,2013-03-06 17:22:00,
2013-03-06 12:32:00,53.0,28.0,30.00,WNW,290,13.0,18.0,38,0.00,,,0.07,,2013-03-06 17:32:00,
2013-03-06 12:42:00,53.0,28.0,30.00,WNW,290,13.0,18.0,38,0.00,,,0.07,,2013-03-06 17:42:00,
2013-03-06 12:53:00,53.0,29.0,30.00,West,280,14.0,18.0,39,0.00,,,0.07,,2013-03-06 17:53:00,
2013-03-06 13:02:00,54.0,29.0,29.97,West,280,13.0,13.0,38,0.00,,,0.07,,2013-03-06 18:02:00,
2013-03-06 13:28:00,54.0,29.0,29.97,West,280,13.0,13.0,38,0.00,,,0.07,,2013-03-06 18:28:00,
2013-03-06 13:42:00,55.0,26.0,29.97,West,260,15.0,18.0,33,0.00,,,0.07,,2013-03-06 18:42:00,
2013-03-06 13:53:00,55.0,28.0,29.94,WNW,285,14.0,16.0,35,0.00,,,0.07,,2013-03-06 18:53:00,
2013-03-06 14:02:00,56.0,29.0,29.94,WNW,295,12.0,12.0,36,0.00,,,0.07,,2013-03-06 19:02:00,
2013-03-06 14:11:00,56.0,29.0,29.94,WNW,295,12.0,12.0,36,0.00,,,0.07,,2013-03-06 19:11:00,
2013-03-06 14:22:00,57.0,25.0,29.94,West,265,12.0,14.0,29,0.00,,,0.07,,2013-03-06 19:22:00,
2013-03-06 14:32:00,57.0,24.0,29.94,West,280,16.0,16.0,28,0.00,,,0.07,,2013-03-06 19:32:00,
2013-03-06 14:43:00,57.0,24.0,29.94,West,280,16.0,16.0,28,0.00,,,0.07,,2013-03-06 19:43:00,
2013-03-06 14:52:00,57.0,24.0,29.94,West,280,16.0,16.0,28,0.00,,,0.07,,2013-03-06 19:52:00,
2013-03-06 15:02:00,57.0,27.0,29.94,WNW,290,17.0,18.0,32,0.00,,,0.07,,2013-03-06 20:02:00,
2013-03-06 15:12:00,57.0,27.0,29.94,WNW,290,17.0,18.0,32,0.00,,,0.07,,2013-03-06 20:12:00,
2013-03-06 15:22:00,58.0,30.0,29.91,West,280,16.0,18.0,34,0.00,,,0.07,,2013-03-06 20:22:00,
2013-03-06 15:32:00,58.0,25.0,29.94,West,270,15.0,18.0,28,0.00,,,0.07,,2013-03-06 20:32:00,
2013-03-06 15:42:00,58.0,25.0,29.94,West,270,15.0,18.0,28,0.00,,,0.07,,2013-03-06 20:42:00,
2013-03-06 15:53:00,58.0,27.0,29.94,West,275,15.0,18.0,30,0.00,,,0.07,,2013-03-06 20:53:00,
2013-03-06 16:02:00,58.0,29.0,29.94,West,275,15.0,15.0,33,0.00,,,0.07,,2013-03-06 21:02:00,
2013-03-06 16:12:00,58.0,29.0,29.94,West,275,15.0,15.0,33,0.00,,,0.07,,2013-03-06 21:12:00,
2013-03-06 16:22:00,57.0,27.0,29.94,West,270,15.0,17.0,31,0.00,,,0.07,,2013-03-06 21:22:00,
2013-03-06 16:32:00,57.0,28.0,29.94,WNW,285,17.0,21.0,33,0.00,,,0.07,,2013-03-06 21:32:00,
2013-03-06 16:42:00,57.0,28.0,29.94,WNW,285,17.0,21.0,33,0.00,,,0.07,,2013-03-06 21:42:00,
2013-03-06 16:52:00,57.0,28.0,29.94,WNW,285,17.0,21.0,33,0.00,,,0.07,,2013-03-06 21:52:00,
2013-03-06 17:02:00,56.0,29.0,29.94,West,275,17.0,20.0,35,0.00,,,0.07,,2013-03-06 22:02:00,
2013-03-06 17:11:00,56.0,29.0,29.94,West,275,17.0,20.0,35,0.00,,,0.07,,2013-03-06 22:11:00,
2013-03-06 17:22:00,56.0,29.0,29.94,West,275,16.0,16.0,35,0.00,,,0.07,,2013-03-06 22:22:00,
2013-03-06 17:32:00,56.0,28.0,29.94,West,260,15.0,16.0,34,0.00,,,0.07,,2013-03-06 22:32:00,
2013-03-06 17:42:00,56.0,28.0,29.94,West,260,15.0,16.0,34,0.00,,,0.07,,2013-03-06 22:42:00,
2013-03-06 17:52:00,56.0,28.0,29.94,West,260,15.0,16.0,34,0.00,,,0.07,,2013-03-06 22:52:00,
2013-03-06 18:01:00,56.0,28.0,29.94,West,260,15.0,16.0,34,0.00,,,0.07,,2013-03-06 23:01:00,
2013-03-06 18:22:00,54.0,28.0,29.97,West,270,16.0,18.0,37,0.00,,,0.07,,2013-03-06 23:22:00,
2013-03-06 18:32:00,54.0,28.0,29.97,West,270,16.0,18.0,37,0.00,,,0.07,,2013-03-06 23:32:00,
2013-03-06 18:42:00,54.0,28.0,29.97,West,270,16.0,18.0,37,0.00,,,0.07,,2013-03-06 23:42:00,
2013-03-06 18:52:00,53.0,31.0,30.00,West,275,12.0,12.0,42,0.00,,,0.07,,2013-03-06 23:52:00,
2013-03-06 19:02:00,52.0,30.0,30.00,West,275,9.0,12.0,43,0.00,,,0.07,,2013-03-07 00:02:00,
2013-03-06 19:11:00,52.0,30.0,30.00,West,275,9.0,12.0,43,0.00,,,0.07,,2013-03-07 00:11:00,
2013-03-06 19:22:00,52.0,31.0,30.03,WNW,285,8.0,9.0,44,0.00,,,0.07,,2013-03-07 00:22:00,
2013-03-06 19:32:00,51.0,30.0,30.03,West,270,5.0,8.0,45,0.00,,,0.07,,2013-03-07 00:32:00,
2013-03-06 19:42:00,51.0,30.0,30.03,West,270,5.0,8.0,45,0.00,,,0.07,,2013-03-07 00:42:00,
2013-03-06 19:52:00,51.0,30.0,30.03,West,265,5.0,8.0,45,0.00,,,0.07,,2013-03-07 00:52:00,
2013-03-06 20:02:00,50.0,29.0,30.03,West,260,1.0,5.0,45,0.00,,,0.07,,2013-03-07 01:02:00,
2013-03-06 20:11:00,50.0,29.0,30.03,West,260,1.0,5.0,45,0.00,,,0.07,,2013-03-07 01:11:00,
2013-03-06 20:21:00,50.0,29.0,30.06,WNW,285,2.0,6.0,45,0.00,,,0.07,,2013-03-07 01:21:00,
2013-03-06 20:32:00,49.0,29.0,30.06,West,265,3.0,8.0,46,0.00,,,0.07,,2013-03-07 01:32:00,
2013-03-06 20:42:00,49.0,29.0,30.06,West,265,3.0,8.0,46,0.00,,,0.07,,2013-03-07 01:42:00,
2013-03-06 20:52:00,49.0,30.0,30.06,West,270,3.0,5.0,48,0.00,,,0.07,,2013-03-07 01:52:00,
2013-03-06 21:01:00,49.0,30.0,30.06,West,260,1.0,1.0,48,0.00,,,0.07,,2013-03-07 02:01:00,
2013-03-06 21:11:00,49.0,30.0,30.06,West,260,1.0,1.0,48,0.00,,,0.07,,2013-03-07 02:11:00,
2013-03-06 21:21:00,49.0,30.0,30.06,WSW,250,1.0,1.0,47,0.00,,,0.07,,2013-03-07 02:21:00,
2013-03-06 21:32:00,48.0,30.0,30.09,WSW,255,0.0,0.0,49,0.00,,,0.07,,2013-03-07 02:32:00,
2013-03-06 21:42:00,48.0,30.0,30.09,WSW,255,0.0,0.0,49,0.00,,,0.07,,2013-03-07 02:42:00,
2013-03-06 21:51:00,48.0,30.0,30.09,WSW,255,0.0,0.0,49,0.00,,,0.07,,2013-03-07 02:51:00,
2013-03-06 22:02:00,48.0,31.0,30.09,West,275,1.0,2.0,51,0.00,,,0.07,,2013-03-07 03:02:00,
2013-03-06 22:11:00,48.0,33.0,30.09,NW,305,2.0,2.0,55,0.00,,,0.07,,2013-03-07 03:11:00,
2013-03-06 22:22:00,48.0,33.0,30.09,NW,305,2.0,2.0,55,0.00,,,0.07,,2013-03-07 03:22:00,
2013-03-06 22:32:00,47.0,32.0,30.09,NW,315,1.0,2.0,55,0.00,,,0.07,,2013-03-07 03:32:00,
2013-03-06 22:42:00,47.0,32.0,30.09,NW,315,1.0,2.0,55,0.00,,,0.07,,2013-03-07 03:42:00,
2013-03-06 22:52:00,47.0,32.0,30.09,NW,315,1.0,2.0,55,0.00,,,0.07,,2013-03-07 03:52:00,
2013-03-06 23:02:00,47.0,31.0,30.12,NW,305,2.0,3.0,53,0.00,,,0.07,,2013-03-07 04:02:00,
2013-03-06 23:12:00,47.0,31.0,30.12,NW,305,2.0,3.0,53,0.00,,,0.07,,2013-03-07 04:12:00,
2013-03-06 23:22:00,47.0,31.0,30.09,NW,305,3.0,6.0,53,0.00,,,0.07,,2013-03-07 04:22:00,
2013-03-06 23:32:00,47.0,30.0,30.12,NW,310,3.0,6.0,52,0.00,,,0.07,,2013-03-07 04:32:00,
2013-03-06 23:42:00,47.0,30.0,30.12,NW,310,3.0,6.0,52,0.00,,,0.07,,2013-03-07 04:42:00,
2013-03-06 23:52:00,46.0,29.0,30.12,WNW,300,5.0,5.0,52,0.00,,,0.07,,2013-03-07 04:52:00,